Time,TemperatureF,DewpointF,PressureIn,WindDirection,WindDirectionDegrees,WindSpeedMPH,WindSpeedGustMPH,Humidity,HourlyPrecipIn,Conditions,Clouds,dailyrainin,SoftwareType,DateUTC
2013-10-19 00:01:00,48.0,38.3,29.92,West,270,0.0,0.0,69,0.00,,,0.00,meteobridge,2013-10-19 04:01:00,
2013-10-19 00:02:00,48.0,38.3,29.92,West,270,0.0,0.0,69,0.00,,,0.00,meteobridge,2013-10-19 04:02:00,
2013-10-19 00:04:00,48.0,38.3,29.93,West,270,0.0,0.0,69,0.00,,,0.00,meteobridge,2013-10-19 04:04:00,
2013-10-19 00:07:00,48.0,38.3,29.93,West,270,0.0,0.0,69,0.00,,,0.00,meteobridge,2013-10-19 04:07:00,
2013-10-19 00:10:00,47.3,37.6,29.92,East,90,0.0,0.0,69,0.00,,,0.00,meteobridge,2013-10-19 04:10:00,
2013-10-19 00:16:00,46.9,37.2,29.93,East,90,0.0,0.0,69,0.00,,,0.00,meteobridge,2013-10-19 04:16:00,
2013-10-19 00:18:00,46.8,37.2,29.92,East,90,0.0,0.0,69,0.00,,,0.00,meteobridge,2013-10-19 04:18:00,
2013-10-19 00:23:00,46.4,37.2,29.93,West,270,0.0,0.0,70,0.00,,,0.00,meteobridge,2013-10-19 04:23:00,
2013-10-19 00:29:00,46.0,37.2,29.93,North,0,0.7,0.7,71,0.00,,,0.00,meteobridge,2013-10-19 04:29:00,
2013-10-19 00:35:00,46.0,37.2,29.93,East,90,0.0,0.0,71,0.00,,,0.00,meteobridge,2013-10-19 04:35:00,
2013-10-19 00:40:00,45.7,36.9,29.93,West,270,0.0,0.0,71,0.00,,,0.00,meteobridge,2013-10-19 04:40:00,
2013-10-19 00:46:00,46.0,37.6,29.93,West,270,0.0,0.0,72,0.00,,,0.00,meteobridge,2013-10-19 04:46:00,
2013-10-19 00:52:00,45.5,37.0,29.93,South,180,0.0,0.7,72,0.00,,,0.00,meteobridge,2013-10-19 04:52:00,
2013-10-19 00:57:00,45.1,36.7,29.93,East,90,1.6,1.6,72,0.00,,,0.00,meteobridge,2013-10-19 04:57:00,
2013-10-19 01:03:00,45.0,36.5,29.93,East,90,0.0,0.0,72,0.00,,,0.00,meteobridge,2013-10-19 05:03:00,
2013-10-19 01:09:00,44.4,36.3,29.93,North,0,0.0,0.0,73,0.00,,,0.00,meteobridge,2013-10-19 05:09:00,
2013-10-19 01:14:00,44.2,36.1,29.93,West,270,0.0,0.0,73,0.00,,,0.00,meteobridge,2013-10-19 05:14:00,
2013-10-19 01:20:00,44.2,36.5,29.93,West,270,0.0,0.0,74,0.00,,,0.00,meteobridge,2013-10-19 05:20:00,
2013-10-19 01:25:00,43.9,36.1,29.93,West,270,0.0,0.0,74,0.00,,,0.00,meteobridge,2013-10-19 05:25:00,
2013-10-19 01:31:00,44.2,36.5,29.92,East,90,0.0,0.0,74,0.00,,,0.00,meteobridge,2013-10-19 05:31:00,
2013-10-19 01:37:00,44.2,36.5,29.93,East,90,0.0,0.0,74,0.00,,,0.00,meteobridge,2013-10-19 05:37:00,
2013-10-19 01:42:00,43.9,36.1,29.93,West,270,0.0,0.0,74,0.00,,,0.00,meteobridge,2013-10-19 05:42:00,
2013-10-19 01:48:00,43.3,35.6,29.93,NW,315,1.6,1.6,74,0.00,,,0.00,meteobridge,2013-10-19 05:48:00,
2013-10-19 01:54:00,43.5,36.1,29.93,East,90,2.2,2.2,75,0.00,,,0.00,meteobridge,2013-10-19 05:54:00,
2013-10-19 01:59:00,43.2,35.8,29.93,North,0,0.0,0.0,75,0.00,,,0.00,meteobridge,2013-10-19 05:59:00,
2013-10-19 02:05:00,43.2,35.8,29.93,North,0,0.0,0.0,75,0.00,,,0.00,meteobridge,2013-10-19 06:05:00,
2013-10-19 02:11:00,43.3,36.0,29.92,West,270,0.0,0.0,75,0.00,,,0.00,meteobridge,2013-10-19 06:11:00,
2013-10-19 02:16:00,43.3,36.0,29.93,North,0,0.0,1.6,75,0.00,,,0.00,meteobridge,2013-10-19 06:16:00,
2013-10-19 02:22:00,43.2,35.8,29.93,South,180,0.0,0.0,75,0.00,,,0.00,meteobridge,2013-10-19 06:22:00,
2013-10-19 02:28:00,43.0,35.6,29.93,East,90,0.0,0.0,75,0.00,,,0.00,meteobridge,2013-10-19 06:28:00,
2013-10-19 02:33:00,42.8,35.4,29.93,South,180,0.0,0.0,75,0.00,,,0.00,meteobridge,2013-10-19 06:33:00,
2013-10-19 02:39:00,42.4,35.4,29.93,East,90,0.0,0.0,76,0.00,,,0.00,meteobridge,2013-10-19 06:39:00,
2013-10-19 02:44:00,42.1,35.1,29.93,East,90,0.0,0.0,76,0.00,,,0.00,meteobridge,2013-10-19 06:44:00,
2013-10-19 02:50:00,41.5,34.5,29.93,East,90,0.0,0.0,76,0.00,,,0.00,meteobridge,2013-10-19 06:50:00,
2013-10-19 02:56:00,41.7,34.7,29.93,East,90,0.0,0.0,76,0.00,,,0.00,meteobridge,2013-10-19 06:56:00,
2013-10-19 03:01:00,42.1,35.4,29.93,South,180,0.7,1.6,77,0.00,,,0.00,meteobridge,2013-10-19 07:01:00,
2013-10-19 03:07:00,41.9,35.2,29.93,East,90,0.0,0.0,77,0.00,,,0.00,meteobridge,2013-10-19 07:07:00,
2013-10-19 03:13:00,41.4,34.7,29.92,East,90,0.0,0.0,77,0.00,,,0.00,meteobridge,2013-10-19 07:13:00,
2013-10-19 03:18:00,41.4,34.7,29.92,East,90,0.0,0.0,77,0.00,,,0.00,meteobridge,2013-10-19 07:18:00,
2013-10-19 03:24:00,41.5,34.9,29.92,South,180,0.0,0.0,77,0.00,,,0.00,meteobridge,2013-10-19 07:24:00,
2013-10-19 03:30:00,41.4,35.1,29.92,South,180,0.0,0.0,78,0.00,,,0.00,meteobridge,2013-10-19 07:30:00,
2013-10-19 03:35:00,41.7,35.4,29.92,South,180,0.0,0.0,78,0.00,,,0.00,meteobridge,2013-10-19 07:35:00,
2013-10-19 03:41:00,41.5,35.2,29.92,South,180,0.0,0.0,78,0.00,,,0.00,meteobridge,2013-10-19 07:41:00,
2013-10-19 03:46:00,41.0,34.7,29.92,East,90,0.0,0.0,78,0.00,,,0.00,meteobridge,2013-10-19 07:46:00,
2013-10-19 03:52:00,41.0,34.7,29.93,North,0,1.6,1.6,78,0.00,,,0.00,meteobridge,2013-10-19 07:52:00,
2013-10-19 03:58:00,40.8,34.9,29.93,South,180,0.0,0.0,79,0.00,,,0.00,meteobridge,2013-10-19 07:58:00,
2013-10-19 04:03:00,40.6,34.7,29.93,South,180,0.0,0.0,79,0.00,,,0.00,meteobridge,2013-10-19 08:03:00,
2013-10-19 04:09:00,41.0,35.1,29.93,North,0,0.0,0.0,79,0.00,,,0.00,meteobridge,2013-10-19 08:09:00,
2013-10-19 04:15:00,41.0,35.1,29.93,North,0,0.0,0.0,79,0.00,,,0.00,meteobridge,2013-10-19 08:15:00,
2013-10-19 04:20:00,41.0,35.1,29.93,North,0,0.0,0.0,79,0.00,,,0.00,meteobridge,2013-10-19 08:20:00,
2013-10-19 04:26:00,41.0,35.1,29.94,East,90,0.0,0.0,79,0.00,,,0.00,meteobridge,2013-10-19 08:26:00,
2013-10-19 04:32:00,40.8,35.1,29.93,East,90,0.0,0.0,80,0.00,,,0.00,meteobridge,2013-10-19 08:32:00,
2013-10-19 04:37:00,40.8,35.1,29.94,East,90,0.0,0.0,80,0.00,,,0.00,meteobridge,2013-10-19 08:37:00,
2013-10-19 04:43:00,41.5,35.6,29.94,West,270,0.0,0.0,79,0.00,,,0.00,meteobridge,2013-10-19 08:43:00,
2013-10-19 04:48:00,40.5,34.7,29.94,West,270,0.0,0.0,80,0.00,,,0.00,meteobridge,2013-10-19 08:48:00,
2013-10-19 04:54:00,40.1,34.5,29.94,West,270,0.0,0.0,80,0.00,,,0.00,meteobridge,2013-10-19 08:54:00,
2013-10-19 05:00:00,40.3,34.5,29.94,East,90,0.0,0.0,80,0.00,,,0.00,meteobridge,2013-10-19 09:00:00,
2013-10-19 05:05:00,39.9,34.5,29.94,East,90,0.0,0.0,81,0.00,,,0.00,meteobridge,2013-10-19 09:05:00,
2013-10-19 05:11:00,39.7,34.3,29.94,North,0,0.0,0.7,81,0.00,,,0.00,meteobridge,2013-10-19 09:11:00,
2013-10-19 05:17:00,40.1,34.7,29.93,East,90,0.0,1.6,81,0.00,,,0.00,meteobridge,2013-10-19 09:17:00,
2013-10-19 05:22:00,40.3,34.9,29.93,East,90,0.0,0.7,81,0.00,,,0.00,meteobridge,2013-10-19 09:22:00,
2013-10-19 05:28:00,40.6,35.2,29.94,North,0,3.1,3.1,81,0.00,,,0.00,meteobridge,2013-10-19 09:28:00,
2013-10-19 05:34:00,40.3,34.9,29.93,East,90,0.0,2.2,81,0.00,,,0.00,meteobridge,2013-10-19 09:34:00,
2013-10-19 05:39:00,40.1,34.7,29.94,West,270,0.7,0.7,81,0.00,,,0.00,meteobridge,2013-10-19 09:39:00,
2013-10-19 05:45:00,39.9,34.5,29.94,West,270,0.0,0.0,81,0.00,,,0.00,meteobridge,2013-10-19 09:45:00,
2013-10-19 05:50:00,39.6,34.2,29.94,West,270,0.0,0.0,81,0.00,,,0.00,meteobridge,2013-10-19 09:50:00,
2013-10-19 05:56:00,39.7,34.3,29.93,West,270,0.0,0.0,81,0.00,,,0.00,meteobridge,2013-10-19 09:56:00,
2013-10-19 06:02:00,38.8,33.8,29.93,West,270,0.0,0.0,82,0.00,,,0.00,meteobridge,2013-10-19 10:02:00,
2013-10-19 06:07:00,39.2,33.8,29.93,West,270,0.0,0.0,81,0.00,,,0.00,meteobridge,2013-10-19 10:07:00,
2013-10-19 06:13:00,39.6,34.2,29.93,East,90,0.0,0.0,81,0.00,,,0.00,meteobridge,2013-10-19 10:13:00,
2013-10-19 06:19:00,39.4,34.3,29.92,East,90,0.0,0.0,82,0.00,,,0.00,meteobridge,2013-10-19 10:19:00,
2013-10-19 06:24:00,39.2,34.2,29.92,NE,45,0.0,0.0,82,0.00,,,0.00,meteobridge,2013-10-19 10:24:00,
2013-10-19 06:29:00,39.0,34.3,29.92,West,270,0.0,0.0,83,0.00,,,0.00,meteobridge,2013-10-19 10:29:00,
2013-10-19 06:35:00,38.3,33.6,29.92,North,0,0.0,0.0,83,0.00,,,0.00,meteobridge,2013-10-19 10:35:00,
2013-10-19 06:41:00,39.0,34.3,29.93,West,270,0.7,0.7,83,0.00,,,0.00,meteobridge,2013-10-19 10:41:00,
2013-10-19 06:46:00,38.8,34.2,29.92,West,270,0.0,0.7,83,0.00,,,0.00,meteobridge,2013-10-19 10:46:00,
2013-10-19 06:52:00,38.3,33.6,29.92,West,270,0.0,0.0,83,0.00,,,0.00,meteobridge,2013-10-19 10:52:00,
2013-10-19 06:57:00,38.8,34.2,29.92,East,90,0.0,0.0,83,0.00,,,0.00,meteobridge,2013-10-19 10:57:00,
2013-10-19 07:03:00,38.5,33.8,29.93,East,90,0.0,0.0,83,0.00,,,0.00,meteobridge,2013-10-19 11:03:00,
2013-10-19 07:09:00,38.7,34.0,29.92,East,90,0.0,0.0,83,0.00,,,0.00,meteobridge,2013-10-19 11:09:00,
2013-10-19 07:14:00,37.6,32.9,29.92,East,90,0.0,0.0,83,0.00,,,0.00,meteobridge,2013-10-19 11:14:00,
2013-10-19 07:20:00,37.4,32.7,29.93,East,90,0.0,0.0,83,0.00,,,0.00,meteobridge,2013-10-19 11:20:00,
2013-10-19 07:26:00,37.4,32.7,29.93,East,90,0.0,0.0,83,0.00,,,0.00,meteobridge,2013-10-19 11:26:00,
2013-10-19 07:31:00,37.6,32.9,29.93,East,90,0.0,0.0,83,0.00,,,0.00,meteobridge,2013-10-19 11:31:00,
2013-10-19 07:37:00,37.6,32.9,29.93,South,180,0.0,0.0,83,0.00,,,0.00,meteobridge,2013-10-19 11:37:00,
2013-10-19 07:43:00,37.6,32.9,29.93,South,180,0.0,0.0,83,0.00,,,0.00,meteobridge,2013-10-19 11:43:00,
2013-10-19 07:48:00,37.4,32.7,29.93,South,180,0.0,0.0,83,0.00,,,0.00,meteobridge,2013-10-19 11:48:00,
2013-10-19 07:54:00,38.3,34.0,29.93,South,180,0.0,0.0,84,0.00,,,0.00,meteobridge,2013-10-19 11:54:00,
2013-10-19 07:59:00,38.7,34.2,29.93,South,180,0.0,0.0,84,0.00,,,0.00,meteobridge,2013-10-19 11:59:00,
2013-10-19 08:05:00,38.5,34.2,29.93,South,180,0.0,0.0,84,0.00,,,0.00,meteobridge,2013-10-19 12:05:00,
2013-10-19 08:11:00,38.5,34.2,29.94,North,0,0.0,0.0,84,0.00,,,0.00,meteobridge,2013-10-19 12:11:00,
2013-10-19 08:16:00,38.7,34.2,29.94,North,0,0.0,0.0,84,0.00,,,0.00,meteobridge,2013-10-19 12:16:00,
2013-10-19 08:22:00,39.2,34.5,29.94,North,0,0.0,0.0,83,0.00,,,0.00,meteobridge,2013-10-19 12:22:00,
2013-10-19 08:28:00,40.1,35.4,29.94,North,0,0.0,0.0,83,0.00,,,0.00,meteobridge,2013-10-19 12:28:00,
2013-10-19 08:33:00,39.9,35.4,29.94,North,0,0.0,0.0,84,0.00,,,0.00,meteobridge,2013-10-19 12:33:00,
2013-10-19 08:38:00,41.0,36.3,29.94,North,0,0.0,0.0,83,0.00,,,0.00,meteobridge,2013-10-19 12:38:00,
2013-10-19 08:44:00,41.4,36.5,29.94,North,0,0.0,0.0,83,0.00,,,0.00,meteobridge,2013-10-19 12:44:00,
2013-10-19 08:50:00,41.5,36.7,29.94,North,0,1.6,1.6,83,0.00,,,0.00,meteobridge,2013-10-19 12:50:00,
2013-10-19 08:55:00,42.1,37.2,29.94,North,0,0.0,1.6,83,0.00,,,0.00,meteobridge,2013-10-19 12:55:00,
2013-10-19 09:01:00,42.8,37.4,29.93,North,0,1.6,1.6,81,0.00,,,0.00,meteobridge,2013-10-19 13:01:00,
2013-10-19 09:06:00,43.2,37.4,29.93,North,0,1.6,1.6,80,0.00,,,0.00,meteobridge,2013-10-19 13:06:00,
2013-10-19 09:12:00,43.9,37.4,29.93,NW,315,2.2,2.2,78,0.00,,,0.00,meteobridge,2013-10-19 13:12:00,
2013-10-19 09:18:00,44.6,37.6,29.93,North,0,0.7,0.7,76,0.00,,,0.00,meteobridge,2013-10-19 13:18:00,
2013-10-19 09:23:00,45.7,38.5,29.93,North,0,0.0,0.0,76,0.00,,,0.00,meteobridge,2013-10-19 13:23:00,
2013-10-19 09:29:00,47.1,39.6,29.94,North,0,0.0,0.0,75,0.00,,,0.00,meteobridge,2013-10-19 13:29:00,
2013-10-19 09:34:00,48.9,41.0,29.94,North,0,0.0,0.0,74,0.00,,,0.00,meteobridge,2013-10-19 13:34:00,
2013-10-19 09:40:00,52.3,43.2,29.94,East,90,0.0,0.0,71,0.00,,,0.00,meteobridge,2013-10-19 13:40:00,
2013-10-19 09:45:00,51.8,41.9,29.94,South,180,0.0,0.0,69,0.00,,,0.00,meteobridge,2013-10-19 13:45:00,
2013-10-19 09:51:00,52.5,42.3,29.93,South,180,0.0,0.0,68,0.00,,,0.00,meteobridge,2013-10-19 13:51:00,
2013-10-19 09:57:00,54.5,43.3,29.93,South,180,0.0,0.0,66,0.00,,,0.00,meteobridge,2013-10-19 13:57:00,
2013-10-19 10:02:00,54.5,43.0,29.93,SW,225,1.6,1.6,65,0.00,,,0.00,meteobridge,2013-10-19 14:02:00,
2013-10-19 10:08:00,54.7,42.8,29.92,SW,225,1.6,2.2,64,0.00,,,0.00,meteobridge,2013-10-19 14:08:00,
2013-10-19 10:14:00,55.8,44.2,29.92,South,180,1.6,1.6,65,0.00,,,0.00,meteobridge,2013-10-19 14:14:00,
2013-10-19 10:19:00,56.3,44.2,29.92,South,180,2.2,2.2,64,0.00,,,0.00,meteobridge,2013-10-19 14:19:00,
2013-10-19 10:25:00,57.4,45.0,29.91,West,270,0.0,0.7,63,0.00,,,0.00,meteobridge,2013-10-19 14:25:00,
2013-10-19 10:31:00,58.3,45.0,29.91,North,0,0.0,0.0,61,0.00,,,0.00,meteobridge,2013-10-19 14:31:00,
2013-10-19 10:36:00,59.7,45.3,29.91,South,180,1.6,2.2,59,0.00,,,0.00,meteobridge,2013-10-19 14:36:00,
2013-10-19 10:42:00,61.2,45.9,29.91,South,180,0.7,1.6,57,0.00,,,0.00,meteobridge,2013-10-19 14:42:00,
2013-10-19 10:47:00,59.7,43.5,29.91,SW,225,0.7,2.2,55,0.00,,,0.00,meteobridge,2013-10-19 14:47:00,
2013-10-19 10:53:00,61.5,44.8,29.91,SE,135,3.1,3.1,54,0.00,,,0.00,meteobridge,2013-10-19 14:53:00,
2013-10-19 10:59:00,60.4,43.7,29.91,South,180,3.8,3.8,54,0.00,,,0.00,meteobridge,2013-10-19 14:59:00,
2013-10-19 11:04:00,63.0,45.5,29.91,South,180,0.0,2.2,53,0.00,,,0.00,meteobridge,2013-10-19 15:04:00,
2013-10-19 11:10:00,62.6,44.8,29.91,South,180,1.6,1.6,52,0.00,,,0.00,meteobridge,2013-10-19 15:10:00,
2013-10-19 11:16:00,63.9,45.3,29.91,West,270,2.2,2.2,51,0.00,,,0.00,meteobridge,2013-10-19 15:16:00,
2013-10-19 11:21:00,63.1,44.2,29.91,West,270,3.8,3.8,50,0.00,,,0.00,meteobridge,2013-10-19 15:21:00,
2013-10-19 11:27:00,63.0,44.6,29.91,SE,135,2.2,3.8,51,0.00,,,0.00,meteobridge,2013-10-19 15:27:00,
2013-10-19 11:33:00,64.8,45.7,29.89,South,180,2.2,3.8,50,0.00,,,0.00,meteobridge,2013-10-19 15:33:00,
2013-10-19 11:38:00,66.9,47.1,29.90,South,180,2.2,2.2,49,0.00,,,0.00,meteobridge,2013-10-19 15:38:00,
2013-10-19 11:44:00,66.7,45.3,29.90,East,90,0.0,0.7,46,0.00,,,0.00,meteobridge,2013-10-19 15:44:00,
2013-10-19 11:50:00,66.4,45.5,29.90,South,180,2.2,2.2,47,0.00,,,0.00,meteobridge,2013-10-19 15:50:00,
2013-10-19 11:55:00,65.8,43.9,29.90,East,90,5.4,5.4,45,0.00,,,0.00,meteobridge,2013-10-19 15:55:00,
2013-10-19 12:01:00,65.7,44.2,29.89,East,90,3.1,5.4,46,0.00,,,0.00,meteobridge,2013-10-19 16:01:00,
2013-10-19 12:06:00,65.3,43.3,29.89,South,180,5.4,5.4,45,0.00,,,0.00,meteobridge,2013-10-19 16:06:00,
2013-10-19 12:12:00,66.7,44.1,29.89,SE,135,7.6,7.6,44,0.00,,,0.00,meteobridge,2013-10-19 16:12:00,
2013-10-19 12:18:00,64.2,40.6,29.88,SE,135,11.4,11.4,42,0.00,,,0.00,meteobridge,2013-10-19 16:18:00,
2013-10-19 12:23:00,65.5,43.0,29.88,East,90,10.7,10.7,44,0.00,,,0.00,meteobridge,2013-10-19 16:23:00,
2013-10-19 12:29:00,66.4,41.4,29.87,SE,135,3.1,4.5,40,0.00,,,0.00,meteobridge,2013-10-19 16:29:00,
2013-10-19 12:35:00,63.7,36.9,29.87,SE,135,19.0,19.0,37,0.00,,,0.00,meteobridge,2013-10-19 16:35:00,
2013-10-19 12:40:00,64.4,40.1,29.86,South,180,9.2,9.2,41,0.00,,,0.00,meteobridge,2013-10-19 16:40:00,
2013-10-19 12:46:00,64.2,40.1,29.86,SE,135,5.4,9.8,41,0.00,,,0.00,meteobridge,2013-10-19 16:46:00,
2013-10-19 12:52:00,64.8,39.2,29.86,NE,45,6.9,11.4,39,0.00,,,0.00,meteobridge,2013-10-19 16:52:00,
2013-10-19 12:57:00,65.1,39.6,29.86,SE,135,9.8,9.8,39,0.00,,,0.00,meteobridge,2013-10-19 16:57:00,
2013-10-19 13:03:00,67.5,42.3,29.86,SE,135,8.3,8.3,40,0.00,,,0.00,meteobridge,2013-10-19 17:03:00,
2013-10-19 13:08:00,64.9,39.4,29.85,SW,225,3.1,15.2,39,0.00,,,0.00,meteobridge,2013-10-19 17:08:00,
2013-10-19 13:14:00,67.8,41.9,29.86,SE,135,11.4,11.4,39,0.00,,,0.00,meteobridge,2013-10-19 17:14:00,
2013-10-19 13:20:00,69.3,42.6,29.85,South,180,6.0,6.0,38,0.00,,,0.00,meteobridge,2013-10-19 17:20:00,
2013-10-19 13:25:00,67.8,39.9,29.85,South,180,9.2,13.0,36,0.00,,,0.00,meteobridge,2013-10-19 17:25:00,
2013-10-19 13:31:00,66.2,38.5,29.85,SW,225,6.0,12.1,36,0.00,,,0.00,meteobridge,2013-10-19 17:31:00,
2013-10-19 13:37:00,67.1,40.6,29.84,SW,225,14.5,14.5,38,0.00,,,0.00,meteobridge,2013-10-19 17:37:00,
2013-10-19 13:42:00,64.6,37.8,29.85,SE,135,15.2,15.2,37,0.00,,,0.00,meteobridge,2013-10-19 17:42:00,
2013-10-19 13:48:00,64.6,39.0,29.84,South,180,10.7,15.2,39,0.00,,,0.00,meteobridge,2013-10-19 17:48:00,
2013-10-19 13:54:00,66.0,41.0,29.84,SW,225,6.0,9.8,40,0.00,,,0.00,meteobridge,2013-10-19 17:54:00,
2013-10-19 13:59:00,66.0,39.7,29.85,SW,225,10.7,10.7,38,0.00,,,0.00,meteobridge,2013-10-19 17:59:00,
2013-10-19 14:05:00,64.4,38.8,29.84,SE,135,10.7,10.7,39,0.00,,,0.00,meteobridge,2013-10-19 18:05:00,
2013-10-19 14:10:00,63.5,39.4,29.85,SE,135,4.5,14.5,41,0.00,,,0.00,meteobridge,2013-10-19 18:10:00,
2013-10-19 14:16:00,64.2,40.6,29.84,South,180,3.1,5.4,42,0.00,,,0.00,meteobridge,2013-10-19 18:16:00,
2013-10-19 14:22:00,64.9,40.6,29.83,SE,135,6.9,6.9,41,0.00,,,0.00,meteobridge,2013-10-19 18:22:00,
2013-10-19 14:27:00,64.0,39.9,29.84,SW,225,5.4,8.3,41,0.00,,,0.00,meteobridge,2013-10-19 18:27:00,
2013-10-19 14:33:00,63.1,39.0,29.83,South,180,10.7,10.7,41,0.00,,,0.00,meteobridge,2013-10-19 18:33:00,
2013-10-19 14:39:00,62.8,38.7,29.83,West,270,12.1,16.8,41,0.00,,,0.00,meteobridge,2013-10-19 18:39:00,
2013-10-19 14:44:00,62.6,39.2,29.82,SE,135,13.0,13.0,42,0.00,,,0.00,meteobridge,2013-10-19 18:44:00,
2013-10-19 14:50:00,62.4,40.3,29.83,SE,135,12.1,12.1,44,0.00,,,0.00,meteobridge,2013-10-19 18:50:00,
2013-10-19 14:56:00,62.4,40.8,29.83,SE,135,6.0,9.2,45,0.00,,,0.00,meteobridge,2013-10-19 18:56:00,
2013-10-19 15:01:00,63.1,42.1,29.83,SE,135,2.2,6.0,46,0.00,,,0.00,meteobridge,2013-10-19 19:01:00,
2013-10-19 15:07:00,62.8,41.7,29.83,East,90,5.4,8.3,46,0.00,,,0.00,meteobridge,2013-10-19 19:07:00,
2013-10-19 15:13:00,62.1,42.6,29.83,SE,135,5.4,8.3,49,0.00,,,0.00,meteobridge,2013-10-19 19:13:00,
2013-10-19 15:18:00,62.1,43.2,29.82,South,180,5.4,14.5,50,0.00,,,0.00,meteobridge,2013-10-19 19:18:00,
2013-10-19 15:24:00,61.9,44.1,29.81,SE,135,4.5,6.9,52,0.00,,,0.00,meteobridge,2013-10-19 19:24:00,
2013-10-19 15:29:00,61.7,43.9,29.83,South,180,3.1,3.8,52,0.00,,,0.00,meteobridge,2013-10-19 19:29:00,
2013-10-19 15:35:00,61.7,44.4,29.82,East,90,4.5,4.5,53,0.00,,,0.00,meteobridge,2013-10-19 19:35:00,
2013-10-19 15:41:00,61.3,43.5,29.82,SE,135,6.0,9.2,52,0.00,,,0.00,meteobridge,2013-10-19 19:41:00,
2013-10-19 15:46:00,61.3,44.1,29.81,SW,225,8.3,8.3,53,0.00,,,0.00,meteobridge,2013-10-19 19:46:00,
2013-10-19 15:52:00,61.2,43.9,29.81,East,90,6.0,11.4,53,0.00,,,0.00,meteobridge,2013-10-19 19:52:00,
2013-10-19 15:58:00,61.2,43.9,29.82,NE,45,3.8,3.8,53,0.00,,,0.00,meteobridge,2013-10-19 19:58:00,
2013-10-19 16:03:00,61.2,43.9,29.81,East,90,6.0,7.6,53,0.00,,,0.00,meteobridge,2013-10-19 20:03:00,
2013-10-19 16:09:00,61.0,43.7,29.81,North,0,2.2,5.4,53,0.00,,,0.00,meteobridge,2013-10-19 20:09:00,
2013-10-19 16:15:00,61.2,43.9,29.80,South,180,6.0,14.5,53,0.00,,,0.00,meteobridge,2013-10-19 20:15:00,
2013-10-19 16:20:00,61.2,43.9,29.81,East,90,6.0,9.2,53,0.00,,,0.00,meteobridge,2013-10-19 20:20:00,
2013-10-19 16:26:00,61.0,43.7,29.80,East,90,4.5,9.8,53,0.00,,,0.00,meteobridge,2013-10-19 20:26:00,
2013-10-19 16:31:00,60.8,44.1,29.78,South,180,0.7,2.2,54,0.00,,,0.00,meteobridge,2013-10-19 20:31:00,
2013-10-19 16:37:00,60.8,44.1,29.78,SE,135,7.6,7.6,54,0.00,,,0.00,meteobridge,2013-10-19 20:37:00,
2013-10-19 16:43:00,60.6,44.4,29.78,East,90,3.8,4.5,55,0.00,,,0.00,meteobridge,2013-10-19 20:43:00,
2013-10-19 16:48:00,60.6,44.4,29.78,SE,135,6.9,6.9,55,0.00,,,0.00,meteobridge,2013-10-19 20:48:00,
2013-10-19 16:54:00,60.6,44.8,29.78,South,180,4.5,4.5,56,0.00,,,0.00,meteobridge,2013-10-19 20:54:00,
2013-10-19 17:00:00,60.4,44.6,29.77,SE,135,2.2,3.8,56,0.00,,,0.00,meteobridge,2013-10-19 21:00:00,
2013-10-19 17:05:00,60.4,44.2,29.78,SE,135,3.8,5.4,55,0.00,,,0.00,meteobridge,2013-10-19 21:05:00,
2013-10-19 17:11:00,60.1,44.4,29.77,South,180,0.0,3.1,56,0.00,,,0.00,meteobridge,2013-10-19 21:11:00,
2013-10-19 17:17:00,59.7,44.4,29.77,East,90,1.6,1.6,57,0.00,,,0.00,meteobridge,2013-10-19 21:17:00,
2013-10-19 17:22:00,59.7,44.4,29.77,South,180,0.7,1.6,57,0.00,,,0.00,meteobridge,2013-10-19 21:22:00,
2013-10-19 17:28:00,59.5,44.2,29.75,South,180,0.0,0.0,57,0.00,,,0.00,meteobridge,2013-10-19 21:28:00,
2013-10-19 17:33:00,59.5,44.2,29.75,East,90,0.0,0.0,57,0.00,,,0.00,meteobridge,2013-10-19 21:33:00,
2013-10-19 17:39:00,59.5,44.2,29.75,South,180,0.7,1.6,57,0.00,,,0.00,meteobridge,2013-10-19 21:39:00,
2013-10-19 17:45:00,59.7,44.1,29.76,West,270,2.2,2.2,56,0.00,,,0.00,meteobridge,2013-10-19 21:45:00,
2013-10-19 17:50:00,59.4,44.1,29.77,SW,225,1.6,2.2,57,0.00,,,0.00,meteobridge,2013-10-19 21:50:00,
2013-10-19 17:56:00,59.4,44.6,29.77,South,180,0.0,0.0,58,0.00,,,0.00,meteobridge,2013-10-19 21:56:00,
2013-10-19 18:02:00,58.8,44.6,29.77,East,90,0.0,1.6,59,0.00,,,0.00,meteobridge,2013-10-19 22:02:00,
2013-10-19 18:07:00,58.8,44.6,29.76,East,90,3.8,3.8,59,0.00,,,0.00,meteobridge,2013-10-19 22:07:00,
2013-10-19 18:13:00,59.0,43.7,29.76,South,180,1.6,3.1,57,0.00,,,0.00,meteobridge,2013-10-19 22:13:00,
2013-10-19 18:19:00,58.6,44.4,29.76,South,180,1.6,4.5,59,0.00,,,0.00,meteobridge,2013-10-19 22:19:00,
2013-10-19 18:24:00,58.5,44.2,29.77,West,270,0.0,0.0,59,0.00,,,0.00,meteobridge,2013-10-19 22:24:00,
2013-10-19 18:30:00,57.9,44.6,29.78,SW,225,0.0,0.7,61,0.00,,,0.00,meteobridge,2013-10-19 22:30:00,
2013-10-19 18:36:00,57.4,44.1,29.78,West,270,0.0,0.0,61,0.00,,,0.00,meteobridge,2013-10-19 22:36:00,
2013-10-19 18:41:00,57.7,44.4,29.78,South,180,0.7,1.6,61,0.00,,,0.00,meteobridge,2013-10-19 22:41:00,
2013-10-19 18:47:00,57.7,43.9,29.77,East,90,0.7,1.6,60,0.00,,,0.00,meteobridge,2013-10-19 22:47:00,
2013-10-19 18:52:00,58.3,44.1,29.78,SE,135,5.4,5.4,59,0.00,,,0.00,meteobridge,2013-10-19 22:52:00,
2013-10-19 18:58:00,58.1,43.9,29.77,East,90,0.0,0.0,59,0.00,,,0.00,meteobridge,2013-10-19 22:58:00,
2013-10-19 19:04:00,57.7,43.5,29.76,South,180,0.0,0.0,59,0.00,,,0.00,meteobridge,2013-10-19 23:04:00,
2013-10-19 19:09:00,57.4,43.2,29.76,South,180,0.0,0.0,59,0.00,,,0.00,meteobridge,2013-10-19 23:09:00,
2013-10-19 19:14:00,57.0,44.1,29.76,South,180,0.7,0.7,62,0.00,,,0.00,meteobridge,2013-10-19 23:14:00,
2013-10-19 19:20:00,56.7,43.7,29.75,West,270,0.0,0.0,62,0.00,,,0.00,meteobridge,2013-10-19 23:20:00,
2013-10-19 19:26:00,57.0,44.1,29.75,West,270,0.0,0.0,62,0.00,,,0.00,meteobridge,2013-10-19 23:26:00,
2013-10-19 19:31:00,57.0,44.1,29.75,South,180,0.0,1.6,62,0.00,,,0.00,meteobridge,2013-10-19 23:31:00,
2013-10-19 19:37:00,56.5,44.4,29.75,South,180,0.0,0.7,64,0.00,,,0.00,meteobridge,2013-10-19 23:37:00,
2013-10-19 19:43:00,56.3,44.2,29.74,South,180,0.0,0.0,64,0.00,,,0.00,meteobridge,2013-10-19 23:43:00,
2013-10-19 19:48:00,56.1,44.1,29.74,South,180,1.6,1.6,64,0.00,,,0.00,meteobridge,2013-10-19 23:48:00,
2013-10-19 19:54:00,55.6,44.1,29.74,South,180,0.0,0.0,65,0.00,,,0.00,meteobridge,2013-10-19 23:54:00,
2013-10-19 19:59:00,55.6,44.1,29.75,South,180,0.0,0.0,65,0.00,,,0.00,meteobridge,2013-10-19 23:59:00,
2013-10-19 20:05:00,55.6,44.1,29.75,South,180,0.0,0.0,65,0.00,,,0.00,meteobridge,2013-10-20 00:05:00,
2013-10-19 20:11:00,55.6,43.5,29.74,South,180,0.0,0.0,64,0.00,,,0.00,meteobridge,2013-10-20 00:11:00,
2013-10-19 20:16:00,55.8,43.7,29.74,East,90,2.2,2.2,64,0.00,,,0.00,meteobridge,2013-10-20 00:16:00,
2013-10-19 20:22:00,56.1,44.1,29.74,South,180,1.6,1.6,64,0.00,,,0.00,meteobridge,2013-10-20 00:22:00,
2013-10-19 20:28:00,56.1,44.1,29.73,South,180,3.8,3.8,64,0.00,,,0.00,meteobridge,2013-10-20 00:28:00,
2013-10-19 20:33:00,55.9,43.9,29.74,South,180,1.6,1.6,64,0.00,,,0.00,meteobridge,2013-10-20 00:33:00,
2013-10-19 20:39:00,55.6,44.1,29.74,South,180,0.0,0.0,65,0.00,,,0.00,meteobridge,2013-10-20 00:39:00,
2013-10-19 20:45:00,55.2,43.7,29.73,SE,135,1.6,3.1,65,0.00,,,0.00,meteobridge,2013-10-20 00:45:00,
2013-10-19 20:50:00,55.2,43.7,29.73,South,180,2.2,4.5,65,0.00,,,0.00,meteobridge,2013-10-20 00:50:00,
2013-10-19 20:56:00,55.0,43.5,29.74,West,270,0.0,0.0,65,0.00,,,0.00,meteobridge,2013-10-20 00:56:00,
2013-10-19 21:01:00,54.7,43.5,29.74,South,180,0.7,0.7,66,0.00,,,0.00,meteobridge,2013-10-20 01:01:00,
2013-10-19 21:07:00,54.5,43.3,29.74,West,270,0.0,0.0,66,0.00,,,0.00,meteobridge,2013-10-20 01:07:00,
2013-10-19 21:13:00,54.3,43.2,29.74,West,270,0.0,0.0,66,0.00,,,0.00,meteobridge,2013-10-20 01:13:00,
2013-10-19 21:18:00,54.5,43.3,29.74,West,270,0.0,0.0,66,0.00,,,0.00,meteobridge,2013-10-20 01:18:00,
2013-10-19 21:23:00,54.7,43.5,29.73,South,180,0.0,0.0,66,0.00,,,0.00,meteobridge,2013-10-20 01:23:00,
2013-10-19 21:29:00,54.7,43.5,29.73,South,180,0.0,0.0,66,0.00,,,0.00,meteobridge,2013-10-20 01:29:00,
2013-10-19 21:35:00,54.9,43.7,29.73,East,90,3.1,3.1,66,0.00,,,0.00,meteobridge,2013-10-20 01:35:00,
2013-10-19 21:40:00,55.2,44.1,29.73,SE,135,0.7,0.7,66,0.00,,,0.00,meteobridge,2013-10-20 01:40:00,
2013-10-19 21:46:00,55.4,44.2,29.72,West,270,0.0,0.7,66,0.00,,,0.00,meteobridge,2013-10-20 01:46:00,
2013-10-19 21:51:00,54.9,44.1,29.73,West,270,0.0,0.0,67,0.00,,,0.00,meteobridge,2013-10-20 01:51:00,
2013-10-19 21:57:00,54.5,43.7,29.73,West,270,0.0,0.0,67,0.00,,,0.00,meteobridge,2013-10-20 01:57:00,
2013-10-19 22:03:00,54.5,43.7,29.73,East,90,0.0,0.0,67,0.00,,,0.00,meteobridge,2013-10-20 02:03:00,
2013-10-19 22:08:00,54.7,43.5,29.72,South,180,0.7,0.7,66,0.00,,,0.00,meteobridge,2013-10-20 02:08:00,
2013-10-19 22:14:00,54.9,43.7,29.72,South,180,0.0,0.0,66,0.00,,,0.00,meteobridge,2013-10-20 02:14:00,
2013-10-19 22:20:00,54.9,44.1,29.72,West,270,0.0,0.0,67,0.00,,,0.00,meteobridge,2013-10-20 02:20:00,
2013-10-19 22:25:00,54.3,43.5,29.72,West,270,0.0,0.0,67,0.00,,,0.00,meteobridge,2013-10-20 02:25:00,
2013-10-19 22:31:00,54.5,44.2,29.72,West,270,0.0,1.6,68,0.00,,,0.00,meteobridge,2013-10-20 02:31:00,
2013-10-19 22:37:00,54.7,44.2,29.71,South,180,0.0,0.0,68,0.00,,,0.00,meteobridge,2013-10-20 02:37:00,
2013-10-19 22:42:00,54.7,44.2,29.71,West,270,0.0,0.0,68,0.00,,,0.00,meteobridge,2013-10-20 02:42:00,
2013-10-19 22:48:00,54.5,44.2,29.71,South,180,0.0,0.0,68,0.00,,,0.00,meteobridge,2013-10-20 02:48:00,
2013-10-19 22:53:00,54.7,44.2,29.71,SE,135,2.2,2.2,68,0.00,,,0.00,meteobridge,2013-10-20 02:53:00,
2013-10-19 22:59:00,54.7,44.2,29.72,North,0,0.0,3.8,68,0.00,,,0.00,meteobridge,2013-10-20 02:59:00,
2013-10-19 23:05:00,54.1,44.2,29.71,West,270,1.6,1.6,69,0.01,,,0.01,meteobridge,2013-10-20 03:05:00,
2013-10-19 23:10:00,53.6,44.4,29.72,North,0,1.6,1.6,71,0.01,,,0.01,meteobridge,2013-10-20 03:10:00,
2013-10-19 23:16:00,53.4,45.0,29.72,North,0,3.8,3.8,73,0.02,,,0.02,meteobridge,2013-10-20 03:16:00,
2013-10-19 23:22:00,53.8,45.0,29.72,North,0,1.6,3.8,72,0.04,,,0.04,meteobridge,2013-10-20 03:22:00,
2013-10-19 23:27:00,53.6,45.1,29.71,East,90,0.0,2.2,73,0.06,,,0.06,meteobridge,2013-10-20 03:27:00,
2013-10-19 23:33:00,53.6,45.1,29.71,West,270,0.0,1.6,73,0.08,,,0.08,meteobridge,2013-10-20 03:33:00,
2013-10-19 23:39:00,53.2,45.5,29.71,South,180,0.0,0.0,75,0.08,,,0.08,meteobridge,2013-10-20 03:39:00,
2013-10-19 23:44:00,53.4,45.7,29.70,West,270,1.6,1.6,75,0.08,,,0.08,meteobridge,2013-10-20 03:44:00,
2013-10-19 23:50:00,53.2,45.9,29.70,East,90,0.0,0.0,76,0.08,,,0.08,meteobridge,2013-10-20 03:50:00,
2013-10-19 23:56:00,53.4,46.0,29.70,West,270,0.0,0.0,76,0.08,,,0.08,meteobridge,2013-10-20 03:56:00,